createdAt,value
2023-04-24T00:02:07.937Z,2.40
2023-04-24T00:04:34.707Z,2.90
2023-04-24T00:07:01.624Z,2.50
2023-04-24T00:09:28.026Z,2.90
2023-04-24T00:11:54.959Z,2.70
2023-04-24T00:14:21.549Z,2.80
2023-04-24T00:16:47.966Z,2.80
2023-04-24T00:19:14.413Z,2.87
2023-04-24T00:21:42.001Z,2.90
2023-04-24T00:24:10.118Z,3.30
2023-04-24T00:26:36.684Z,3.60
2023-04-24T00:29:03.386Z,3.57
2023-04-24T00:31:30.263Z,3.40
2023-04-24T00:33:56.700Z,3.40
2023-04-24T00:36:23.294Z,3.00
2023-04-24T00:38:49.660Z,3.67
2023-04-24T00:41:16.833Z,3.70
2023-04-24T00:43:43.386Z,3.60
2023-04-24T00:46:09.952Z,3.60
2023-04-24T00:48:36.447Z,4.03
2023-04-24T00:51:02.901Z,3.90
2023-04-24T00:53:29.348Z,4.10
2023-04-24T00:55:56.381Z,4.00
2023-04-24T00:58:23.847Z,4.27
2023-04-24T01:00:54.045Z,4.37
2023-04-24T01:03:27.714Z,4.30
2023-04-24T01:05:55.609Z,4.50
2023-04-24T01:08:25.025Z,5.07
2023-04-24T01:10:56.091Z,4.53
2023-04-24T01:13:22.776Z,4.67
2023-04-24T01:15:49.688Z,4.60
2023-04-24T01:21:04.853Z,4.60
2023-04-24T01:23:31.310Z,4.80
2023-04-24T01:25:57.846Z,4.60
2023-04-24T01:28:24.615Z,5.40
2023-04-24T01:30:51.075Z,5.40
2023-04-24T01:33:18.156Z,5.30
2023-04-24T01:35:44.821Z,5.27
2023-04-24T01:38:12.752Z,6.13
2023-04-24T01:40:39.646Z,7.20
2023-04-24T01:43:06.618Z,6.40
2023-04-24T01:45:33.064Z,7.50
2023-04-24T01:47:59.935Z,6.77
2023-04-24T01:50:26.521Z,8.00
2023-04-24T01:52:53.330Z,7.90
2023-04-24T01:55:19.895Z,8.07
2023-04-24T01:57:46.781Z,8.27
2023-04-24T02:00:14.081Z,7.93
2023-04-24T02:02:43.652Z,6.83
2023-04-24T02:05:12.069Z,6.87
2023-04-24T02:07:38.861Z,8.00
2023-04-24T02:10:06.194Z,7.23
2023-04-24T02:12:32.806Z,8.47
2023-04-24T02:15:00.264Z,7.23
2023-04-24T02:17:27.171Z,8.67
2023-04-24T02:19:53.543Z,7.87
2023-04-24T02:25:06.523Z,7.60
2023-04-24T02:27:32.941Z,7.10
2023-04-24T02:29:59.406Z,6.20
2023-04-24T02:32:25.803Z,6.30
2023-04-24T02:34:52.353Z,7.00
2023-04-24T02:37:19.224Z,6.63
2023-04-24T02:39:45.622Z,5.57
2023-04-24T02:42:12.238Z,6.57
2023-04-24T02:44:38.655Z,7.17
2023-04-24T02:47:05.777Z,5.97
2023-04-24T02:49:32.196Z,5.67
2023-04-24T02:51:58.831Z,5.87
2023-04-24T02:54:25.357Z,5.80
2023-04-24T02:56:52.748Z,5.40
2023-04-24T02:59:19.183Z,5.37
2023-04-24T03:01:46.946Z,5.67
2023-04-24T03:04:13.804Z,5.10
2023-04-24T03:06:40.687Z,5.00
2023-04-24T03:09:07.148Z,4.93
2023-04-24T03:11:33.662Z,5.07
2023-04-24T03:14:00.109Z,5.27
2023-04-24T03:16:26.823Z,5.30
2023-04-24T03:18:53.662Z,5.00
2023-04-24T03:21:20.430Z,5.00
2023-04-24T03:23:47.246Z,4.80
2023-04-24T03:26:13.628Z,5.13
2023-04-24T03:28:40.516Z,5.40
2023-04-24T03:31:06.955Z,5.60
2023-04-24T03:33:33.465Z,6.10
2023-04-24T03:35:59.862Z,5.20
2023-04-24T03:38:26.281Z,5.27
2023-04-24T03:40:52.806Z,5.67
2023-04-24T03:43:19.463Z,5.60
2023-04-24T03:45:45.890Z,5.23
2023-04-24T03:48:12.703Z,5.77
2023-04-24T03:50:39.082Z,5.73
2023-04-24T03:53:05.559Z,5.50
2023-04-24T03:55:31.998Z,5.03
2023-04-24T03:57:58.397Z,5.60
2023-04-24T04:00:24.921Z,5.37
2023-04-24T04:02:51.423Z,5.33
2023-04-24T04:05:18.009Z,6.07
2023-04-24T04:07:44.484Z,6.17
2023-04-24T04:10:11.064Z,5.70
2023-04-24T04:12:37.590Z,5.73
2023-04-24T04:15:05.087Z,5.23
2023-04-24T04:17:31.581Z,5.70
2023-04-24T04:19:58.673Z,5.77
2023-04-24T04:22:25.174Z,6.20
2023-04-24T04:24:52.012Z,5.70
2023-04-24T04:27:19.536Z,6.07
2023-04-24T04:29:46.104Z,5.67
2023-04-24T04:32:12.647Z,6.53
2023-04-24T04:34:40.658Z,6.63
2023-04-24T04:37:07.068Z,6.13
2023-04-24T04:39:33.856Z,5.80
2023-04-24T04:42:01.431Z,6.20
2023-04-24T04:44:30.495Z,5.83
2023-04-24T04:46:57.971Z,6.17
2023-04-24T04:49:25.485Z,5.57
2023-04-24T04:51:52.058Z,5.20
2023-04-24T04:54:18.623Z,5.77
2023-04-24T04:56:45.193Z,5.10
2023-04-24T04:59:12.097Z,4.73
2023-04-24T05:01:38.934Z,4.93
2023-04-24T05:04:05.580Z,5.20
2023-04-24T05:06:32.106Z,5.00
2023-04-24T05:08:58.608Z,4.50
2023-04-24T05:11:25.075Z,4.50
2023-04-24T05:13:51.512Z,4.90
2023-04-24T05:16:17.988Z,4.43
2023-04-24T05:18:44.456Z,4.23
2023-04-24T05:21:10.867Z,3.93
2023-04-24T05:23:37.324Z,4.43
2023-04-24T05:26:06.180Z,4.50
2023-04-24T05:28:34.088Z,3.23
2023-04-24T05:31:00.691Z,3.10
2023-04-24T05:33:27.177Z,3.80
2023-04-24T05:35:53.557Z,3.30
2023-04-24T05:38:20.606Z,3.50
2023-04-24T05:40:47.294Z,2.93
2023-04-24T05:43:14.082Z,3.07
2023-04-24T05:45:40.838Z,2.60
2023-04-24T05:48:07.491Z,2.80
2023-04-24T05:50:36.180Z,2.27
2023-04-24T05:53:03.420Z,2.43
2023-04-24T05:55:31.475Z,2.30
2023-04-24T05:57:58.005Z,2.40
2023-04-24T06:00:25.441Z,2.30
2023-04-24T06:02:53.792Z,2.43
2023-04-24T06:05:20.712Z,2.40
2023-04-24T06:07:47.395Z,2.70
2023-04-24T06:10:13.819Z,2.67
2023-04-24T06:12:40.594Z,2.60
2023-04-24T06:15:08.046Z,2.90
2023-04-24T06:17:34.468Z,3.03
2023-04-24T06:20:00.919Z,3.10
2023-04-24T06:22:27.337Z,3.20
2023-04-24T06:24:53.690Z,3.13
2023-04-24T06:27:20.075Z,3.23
2023-04-24T06:29:46.472Z,3.13
2023-04-24T06:32:12.870Z,3.40
2023-04-24T06:34:39.626Z,3.40
2023-04-24T06:37:06.520Z,3.43
2023-04-24T06:39:32.955Z,3.00
2023-04-24T06:41:59.838Z,3.63
2023-04-24T06:44:26.293Z,3.40
2023-04-24T06:46:53.124Z,3.23
2023-04-24T06:49:19.488Z,3.60
2023-04-24T06:51:46.538Z,3.40
2023-04-24T06:54:12.936Z,3.70
2023-04-24T06:56:39.374Z,3.30
2023-04-24T06:59:06.797Z,3.67
2023-04-24T07:01:33.306Z,3.20
2023-04-24T07:04:00.583Z,3.80
2023-04-24T07:06:28.493Z,3.77
2023-04-24T07:08:55.112Z,3.70
2023-04-24T07:11:21.835Z,3.60
2023-04-24T07:13:48.196Z,3.60
2023-04-24T07:16:15.581Z,3.60
2023-04-24T07:18:41.995Z,3.40
2023-04-24T07:21:08.658Z,3.40
2023-04-24T07:23:35.023Z,3.00
2023-04-24T07:26:01.642Z,3.50
2023-04-24T07:28:28.126Z,3.23
2023-04-24T07:30:55.106Z,3.10
2023-04-24T07:33:21.807Z,2.70
2023-04-24T07:35:48.667Z,2.80
2023-04-24T07:38:15.179Z,2.70
2023-04-24T07:40:41.661Z,2.60
2023-04-24T07:43:08.037Z,2.70
2023-04-24T07:45:37.983Z,2.50
2023-04-24T07:48:04.658Z,2.23
2023-04-24T07:50:31.423Z,2.30
2023-04-24T07:52:58.072Z,2.47
2023-04-24T07:55:27.329Z,2.20
2023-04-24T07:57:54.669Z,2.37
2023-04-24T08:00:21.736Z,2.20
2023-04-24T08:02:48.626Z,1.97
2023-04-24T08:05:15.448Z,1.90
2023-04-24T08:07:43.496Z,1.93
2023-04-24T08:10:12.050Z,1.60
2023-04-24T08:12:38.890Z,1.70
2023-04-24T08:15:06.358Z,1.40
2023-04-24T08:17:32.795Z,1.33
2023-04-24T08:20:03.472Z,1.50
2023-04-24T08:22:29.858Z,1.43
2023-04-24T08:24:57.898Z,1.40
2023-04-24T08:27:24.834Z,1.10
2023-04-24T08:29:51.312Z,1.37
2023-04-24T08:32:18.013Z,1.20
2023-04-24T08:34:44.456Z,1.23
2023-04-24T08:37:11.025Z,1.10
2023-04-24T08:39:38.008Z,1.30
2023-04-24T08:42:09.411Z,1.10
2023-04-24T08:44:36.858Z,1.10
2023-04-24T08:47:03.868Z,1.07
2023-04-24T08:49:30.516Z,1.30
2023-04-24T08:51:57.477Z,1.10
2023-04-24T08:54:24.351Z,1.10
2023-04-24T08:56:51.789Z,1.40
2023-04-24T08:59:19.151Z,1.27
2023-04-24T09:01:48.493Z,1.40
2023-04-24T09:04:17.322Z,1.30
2023-04-24T09:06:44.568Z,1.70
2023-04-24T09:09:12.536Z,1.30
2023-04-24T09:11:38.960Z,1.30
2023-04-24T09:14:05.511Z,1.20
2023-04-24T09:16:35.942Z,1.17
2023-04-24T09:19:04.128Z,1.50
2023-04-24T09:21:35.310Z,1.27
2023-04-24T09:24:04.751Z,1.47
2023-04-24T09:26:35.001Z,1.20
2023-04-24T09:29:01.830Z,1.10
2023-04-24T09:31:29.837Z,1.20
2023-04-24T09:34:08.272Z,1.23
2023-04-24T09:36:38.678Z,1.03
2023-04-24T09:39:07.125Z,1.10
2023-04-24T09:41:34.134Z,1.13
2023-04-24T09:44:35.302Z,1.20
2023-04-24T09:47:01.810Z,1.30
2023-04-24T09:49:30.290Z,1.27
2023-04-24T09:52:12.853Z,1.23
2023-04-24T09:54:39.411Z,1.20
2023-04-24T09:57:08.358Z,1.20
2023-04-24T09:59:36.152Z,1.27
2023-04-24T10:02:04.163Z,1.20
2023-04-24T10:04:30.746Z,1.07
2023-04-24T10:06:58.381Z,1.40
2023-04-24T10:09:26.935Z,1.20
2023-04-24T10:11:54.952Z,1.23
2023-04-24T10:14:26.464Z,1.10
2023-04-24T10:16:58.633Z,1.20
2023-04-24T10:19:27.280Z,1.07
2023-04-24T10:21:55.568Z,1.10
2023-04-24T10:24:22.198Z,1.00
2023-04-24T10:26:49.402Z,1.03
2023-04-24T10:29:20.190Z,1.23
2023-04-24T10:31:48.188Z,1.27
2023-04-24T10:34:16.824Z,1.20
2023-04-24T10:36:49.159Z,1.10
2023-04-24T10:39:17.489Z,1.20
2023-04-24T10:41:44.425Z,1.50
2023-04-24T10:44:13.654Z,1.20
2023-04-24T10:46:44.692Z,1.20
2023-04-24T10:49:11.156Z,1.20
2023-04-24T10:51:54.734Z,1.30
2023-04-24T10:54:24.837Z,1.20
2023-04-24T10:56:52.456Z,1.13
2023-04-24T10:59:26.724Z,1.40
2023-04-24T11:01:56.427Z,1.20
2023-04-24T11:04:33.882Z,1.30
2023-04-24T11:07:00.941Z,1.50
2023-04-24T11:09:29.448Z,1.20
2023-04-24T11:12:14.813Z,1.43
2023-04-24T11:14:56.727Z,1.50
2023-04-24T11:17:38.578Z,1.20
2023-04-24T11:20:26.048Z,1.20
2023-04-24T11:22:56.045Z,1.47
2023-04-24T11:25:26.716Z,1.40
2023-04-24T11:28:05.262Z,1.40
2023-04-24T11:30:33.138Z,1.20
2023-04-24T11:33:04.536Z,1.43
2023-04-24T11:35:36.741Z,1.43
2023-04-24T11:38:22.812Z,1.50
2023-04-24T11:40:50.698Z,1.30
2023-04-24T11:43:19.776Z,1.30
2023-04-24T11:45:49.744Z,1.10
2023-04-24T11:48:22.573Z,0.87
2023-04-24T11:50:49.850Z,0.90
2023-04-24T11:53:16.256Z,0.90
2023-04-24T11:55:42.649Z,1.10
2023-04-24T11:58:09.070Z,1.00
2023-04-24T12:00:36.447Z,1.33
2023-04-24T12:03:08.521Z,1.17
2023-04-24T12:05:35.975Z,1.43
2023-04-24T12:08:02.728Z,1.23
2023-04-24T12:10:31.585Z,1.37
2023-04-24T12:12:59.568Z,1.50
2023-04-24T12:15:26.499Z,1.30
2023-04-24T12:17:54.317Z,1.50
2023-04-24T12:20:33.713Z,1.33
2023-04-24T12:23:02.099Z,1.30
2023-04-24T12:25:39.619Z,1.50
2023-04-24T12:28:06.324Z,1.30
2023-04-24T12:30:35.379Z,1.40
2023-04-24T12:33:03.959Z,1.40
2023-04-24T12:35:36.712Z,1.30
2023-04-24T12:38:08.959Z,1.20
2023-04-24T12:40:35.707Z,1.27
2023-04-24T12:43:02.134Z,1.30
2023-04-24T12:45:29.048Z,1.40
2023-04-24T12:47:55.593Z,1.30
2023-04-24T12:50:22.037Z,1.10
2023-04-24T12:52:48.440Z,1.20
2023-04-24T12:55:14.922Z,1.30
2023-04-24T12:57:41.559Z,1.10
2023-04-24T13:00:09.541Z,1.00
2023-04-24T13:02:36.441Z,1.10
2023-04-24T13:05:03.515Z,1.20
2023-04-24T13:07:29.908Z,1.20
2023-04-24T13:09:57.697Z,1.20
2023-04-24T13:12:27.549Z,1.00
2023-04-24T13:14:54.446Z,0.93
2023-04-24T13:17:21.131Z,1.03
2023-04-24T13:19:48.428Z,0.93
2023-04-24T13:22:14.929Z,1.07
2023-04-24T13:24:42.234Z,1.00
2023-04-24T13:27:09.385Z,1.03
2023-04-24T13:29:36.003Z,0.93
2023-04-24T13:32:02.421Z,0.90
2023-04-24T13:34:28.880Z,0.97
2023-04-24T13:36:57.623Z,1.00
2023-04-24T13:39:25.507Z,0.87
2023-04-24T13:41:52.002Z,0.97
2023-04-24T13:44:20.446Z,1.13
2023-04-24T13:46:48.693Z,1.00
2023-04-24T13:49:16.315Z,0.80
2023-04-24T13:51:43.365Z,1.00
2023-04-24T13:54:10.078Z,0.90
2023-04-24T13:56:36.674Z,1.03
2023-04-24T13:59:03.210Z,1.40
2023-04-24T14:01:29.733Z,1.30
2023-04-24T14:03:57.046Z,1.07
2023-04-24T14:06:24.227Z,1.20
2023-04-24T14:08:51.361Z,1.10
2023-04-24T14:11:18.727Z,1.40
2023-04-24T14:13:46.811Z,0.90
2023-04-24T14:16:13.711Z,1.00
2023-04-24T14:18:40.164Z,1.00
2023-04-24T14:21:07.305Z,1.40
2023-04-24T14:23:33.716Z,1.00
2023-04-24T14:26:00.247Z,1.20
2023-04-24T14:28:27.497Z,1.10
2023-04-24T14:30:54.813Z,1.20
2023-04-24T14:33:21.652Z,1.20
2023-04-24T14:35:48.628Z,1.10
2023-04-24T14:38:16.160Z,1.30
2023-04-24T14:41:04.689Z,1.20
2023-04-24T14:43:29.294Z,1.30
2023-04-24T14:45:55.873Z,1.20
2023-04-24T14:48:22.235Z,1.30
2023-04-24T14:50:48.671Z,1.20
2023-04-24T14:53:15.461Z,1.10
2023-04-24T14:55:41.838Z,1.20
2023-04-24T14:58:08.304Z,1.13
2023-04-24T15:00:34.840Z,1.23
2023-04-24T15:05:28.162Z,1.20
2023-04-24T15:07:54.804Z,1.30
2023-04-24T15:10:23.786Z,1.10
2023-04-24T15:12:50.536Z,1.20
2023-04-24T15:15:16.945Z,1.40
2023-04-24T15:17:43.393Z,1.30
2023-04-24T15:20:10.194Z,1.33
2023-04-24T15:22:36.615Z,1.60
2023-04-24T15:25:03.686Z,1.47
2023-04-24T15:27:41.422Z,1.50
2023-04-24T15:30:08.693Z,1.50
2023-04-24T15:32:35.169Z,1.53
2023-04-24T15:35:08.714Z,1.90
2023-04-24T15:37:36.393Z,1.80
2023-04-24T15:40:05.524Z,1.40
2023-04-24T15:42:32.059Z,1.50
2023-04-24T15:44:58.507Z,1.40
2023-04-24T15:47:25.765Z,1.57
2023-04-24T15:49:53.810Z,1.57
2023-04-24T15:52:20.230Z,1.30
2023-04-24T15:54:46.648Z,1.50
2023-04-24T15:57:13.457Z,1.50
2023-04-24T15:59:40.347Z,1.40
2023-04-24T16:02:09.649Z,1.60
2023-04-24T16:04:36.445Z,1.50
2023-04-24T16:07:03.166Z,1.50
2023-04-24T16:09:29.729Z,1.30
2023-04-24T16:11:56.619Z,1.30
2023-04-24T16:14:25.072Z,1.30
2023-04-24T16:16:52.291Z,1.20
2023-04-24T16:19:18.824Z,1.57
2023-04-24T16:21:46.224Z,1.50
2023-04-24T16:24:12.847Z,1.57
2023-04-24T16:26:39.841Z,1.73
2023-04-24T16:29:06.260Z,1.70
2023-04-24T16:31:33.879Z,1.30
2023-04-24T16:34:00.798Z,1.20
2023-04-24T16:36:28.551Z,1.50
2023-04-24T16:38:54.955Z,1.50
2023-04-24T16:41:21.877Z,1.60
2023-04-24T16:43:48.263Z,1.67
2023-04-24T16:46:15.088Z,1.80
2023-04-24T16:48:41.578Z,1.50
2023-04-24T16:51:08.578Z,1.30
2023-04-24T16:53:34.942Z,1.30
2023-04-24T16:56:01.477Z,1.30
2023-04-24T16:58:27.891Z,1.10
2023-04-24T17:00:55.005Z,1.33
2023-04-24T17:03:21.686Z,1.47
2023-04-24T17:05:48.516Z,1.30
2023-04-24T17:08:15.099Z,1.30
2023-04-24T17:10:41.606Z,1.20
2023-04-24T17:13:08.702Z,1.20
2023-04-24T17:15:36.046Z,1.30
2023-04-24T17:18:02.860Z,1.40
2023-04-24T17:20:30.252Z,1.30
2023-04-24T17:22:57.202Z,1.40
2023-04-24T17:25:24.112Z,1.30
2023-04-24T17:27:50.778Z,1.50
2023-04-24T17:30:17.966Z,1.30
2023-04-24T17:32:44.673Z,1.30
2023-04-24T17:35:11.255Z,1.40
2023-04-24T17:37:37.938Z,1.70
2023-04-24T17:40:04.713Z,1.40
2023-04-24T17:42:31.343Z,1.30
2023-04-24T17:44:57.729Z,1.20
2023-04-24T17:47:26.142Z,1.20
2023-04-24T17:49:52.844Z,1.30
2023-04-24T17:52:19.275Z,1.10
2023-04-24T17:54:45.874Z,1.20
2023-04-24T17:57:12.434Z,1.20
2023-04-24T17:59:38.831Z,1.10
2023-04-24T18:02:05.775Z,1.00
2023-04-24T18:04:32.218Z,1.10
2023-04-24T18:06:58.722Z,1.10
2023-04-24T18:09:25.153Z,1.00
2023-04-24T18:11:51.725Z,1.10
2023-04-24T18:14:18.130Z,1.13
2023-04-24T18:16:44.850Z,1.07
2023-04-24T18:19:11.297Z,1.10
2023-04-24T18:21:37.748Z,1.27
2023-04-24T18:24:04.428Z,1.20
2023-04-24T18:26:31.117Z,1.23
2023-04-24T18:28:57.908Z,1.07
2023-04-24T18:31:24.419Z,1.30
2023-04-24T18:33:51.017Z,1.27
2023-04-24T18:36:17.412Z,1.30
2023-04-24T18:38:44.281Z,1.20
2023-04-24T18:41:10.737Z,1.20
2023-04-24T18:43:37.159Z,1.17
2023-04-24T18:46:03.618Z,1.20
2023-04-24T18:48:31.168Z,1.33
2023-04-24T18:50:57.736Z,1.10
2023-04-24T18:53:24.313Z,1.40
2023-04-24T18:55:50.961Z,1.30
2023-04-24T18:58:17.351Z,1.50
2023-04-24T19:00:43.771Z,1.30
2023-04-24T19:03:10.904Z,1.40
2023-04-24T19:05:37.487Z,1.40
2023-04-24T19:08:03.899Z,1.50
2023-04-24T19:10:30.944Z,1.23
2023-04-24T19:12:57.691Z,1.73
2023-04-24T19:15:24.662Z,1.47
2023-04-24T19:17:51.812Z,1.30
2023-04-24T19:20:21.631Z,1.13
2023-04-24T19:22:48.225Z,1.20
2023-04-24T19:25:15.566Z,1.43
2023-04-24T19:27:42.007Z,1.60
2023-04-24T19:30:08.937Z,1.40
2023-04-24T19:32:35.479Z,1.43
2023-04-24T19:35:02.044Z,1.60
2023-04-24T19:37:28.466Z,1.57
2023-04-24T19:39:54.894Z,1.80
2023-04-24T19:42:28.723Z,1.83
2023-04-24T19:45:02.752Z,1.80
2023-04-24T19:47:29.152Z,2.00
2023-04-24T19:49:55.532Z,1.70
2023-04-24T19:52:21.938Z,1.60
2023-04-24T19:54:48.384Z,1.67
2023-04-24T19:57:14.738Z,1.80
2023-04-24T19:59:41.205Z,1.50
2023-04-24T20:02:08.752Z,1.50
2023-04-24T20:04:35.315Z,1.47
2023-04-24T20:07:02.122Z,1.83
2023-04-24T20:09:28.651Z,1.60
2023-04-24T20:11:56.976Z,1.70
2023-04-24T20:14:23.373Z,1.67
2023-04-24T20:16:51.033Z,1.70
2023-04-24T20:19:17.777Z,1.90
2023-04-24T20:21:44.266Z,1.70
2023-04-24T20:24:10.807Z,1.70
2023-04-24T20:26:37.716Z,1.80
2023-04-24T20:29:05.104Z,1.60
2023-04-24T20:31:31.552Z,1.90
2023-04-24T20:33:57.959Z,1.60
2023-04-24T20:36:24.357Z,1.87
2023-04-24T20:38:51.845Z,1.70
2023-04-24T20:41:19.435Z,1.70
2023-04-24T20:43:46.219Z,1.67
2023-04-24T20:46:12.664Z,1.90
2023-04-24T20:48:39.118Z,1.97
2023-04-24T20:51:05.744Z,2.03
2023-04-24T20:53:32.233Z,1.60
2023-04-24T20:55:59.035Z,2.13
2023-04-24T20:58:25.525Z,1.90
2023-04-24T21:00:52.134Z,1.97
2023-04-24T21:03:18.816Z,1.87
2023-04-24T21:05:45.743Z,1.90
2023-04-24T21:08:12.609Z,1.70
2023-04-24T21:10:39.308Z,2.07
2023-04-24T21:13:05.758Z,1.93
2023-04-24T21:15:33.637Z,1.90
2023-04-24T21:18:00.541Z,1.67
2023-04-24T21:20:26.981Z,2.00
2023-04-24T21:22:53.436Z,1.73
2023-04-24T21:25:20.233Z,1.80
2023-04-24T21:27:46.813Z,1.80
2023-04-24T21:30:13.569Z,1.70
2023-04-24T21:32:40.569Z,2.10
2023-04-24T21:35:07.367Z,1.80
2023-04-24T21:37:35.446Z,1.70
2023-04-24T21:40:04.672Z,1.80
2023-04-24T21:42:31.296Z,1.83
2023-04-24T21:44:58.661Z,1.90
2023-04-24T21:47:25.252Z,1.90
2023-04-24T21:49:51.699Z,1.80
2023-04-24T21:52:18.081Z,2.00
2023-04-24T21:54:44.528Z,1.97
2023-04-24T21:57:11.807Z,1.90
2023-04-24T21:59:38.364Z,1.70
2023-04-24T22:02:04.805Z,2.10
2023-04-24T22:04:31.316Z,2.00
2023-04-24T22:06:57.852Z,1.97
2023-04-24T22:09:24.318Z,1.90
2023-04-24T22:11:50.978Z,2.13
2023-04-24T22:14:17.537Z,1.93
2023-04-24T22:16:45.919Z,2.00
2023-04-24T22:19:12.383Z,2.07
2023-04-24T22:21:40.035Z,2.20
2023-04-24T22:24:07.371Z,1.90
2023-04-24T22:26:34.080Z,2.03
2023-04-24T22:29:00.751Z,2.00
2023-04-24T22:31:27.262Z,2.00
2023-04-24T22:33:53.675Z,1.90
2023-04-24T22:36:20.238Z,1.80
2023-04-24T22:38:46.609Z,1.60
2023-04-24T22:41:14.506Z,2.00
2023-04-24T22:43:40.971Z,1.80
2023-04-24T22:46:07.354Z,1.80
2023-04-24T22:48:34.522Z,2.00
2023-04-24T22:51:01.249Z,2.03
2023-04-24T22:53:28.780Z,2.00
2023-04-24T22:55:56.260Z,2.10
2023-04-24T22:58:22.719Z,1.90
2023-04-24T23:00:49.151Z,1.80
2023-04-24T23:03:15.787Z,1.77
2023-04-24T23:05:42.325Z,1.90
2023-04-24T23:08:08.812Z,2.10
2023-04-24T23:10:35.318Z,1.60
2023-04-24T23:13:01.741Z,2.10
2023-04-24T23:15:28.145Z,1.60
2023-04-24T23:17:54.900Z,1.90
2023-04-24T23:20:21.722Z,2.10
2023-04-24T23:22:48.493Z,1.87
2023-04-24T23:25:14.858Z,2.27
2023-04-24T23:27:41.295Z,2.33
2023-04-24T23:30:08.296Z,2.13
2023-04-24T23:32:34.785Z,2.40
2023-04-24T23:35:01.227Z,2.00
2023-04-24T23:37:28.153Z,1.90
2023-04-24T23:39:54.556Z,2.00
2023-04-24T23:42:21.011Z,2.10
2023-04-24T23:44:47.382Z,2.07
2023-04-24T23:47:14.109Z,2.20
2023-04-24T23:49:40.976Z,2.10
2023-04-24T23:52:07.776Z,2.20
2023-04-24T23:54:34.813Z,2.50
2023-04-24T23:57:02.684Z,2.50
2023-04-24T23:59:29.157Z,2.37
